createdAt,value
2022-08-23T00:02:29.416Z,20.06
2022-08-23T00:05:09.158Z,20.03
2022-08-23T00:07:39.924Z,20.06
2022-08-23T00:10:11.225Z,20.08
2022-08-23T00:12:40.360Z,20.09
2022-08-23T00:15:13.197Z,19.98
2022-08-23T00:17:43.967Z,19.96
2022-08-23T00:20:18.548Z,19.98
2022-08-23T00:22:47.944Z,20.02
2022-08-23T00:25:17.136Z,20.04
2022-08-23T00:27:46.175Z,19.98
2022-08-23T00:30:17.276Z,19.99
2022-08-23T00:32:48.012Z,19.96
2022-08-23T00:35:26.574Z,19.95
2022-08-23T00:38:14.624Z,19.99
2022-08-23T00:40:47.359Z,20.07
2022-08-23T00:43:35.932Z,20.04
2022-08-23T00:46:32.606Z,20.10
2022-08-23T00:49:08.821Z,20.04
2022-08-23T00:51:52.684Z,20.03
2022-08-23T00:54:24.117Z,20.08
2022-08-23T00:56:53.279Z,20.04
2022-08-23T00:59:21.774Z,20.05
2022-08-23T01:02:00.029Z,20.02
2022-08-23T01:04:45.130Z,19.97
2022-08-23T01:07:20.959Z,19.93
2022-08-23T01:09:53.433Z,19.93
2022-08-23T01:12:32.321Z,19.94
2022-08-23T01:15:07.265Z,19.87
2022-08-23T01:17:42.498Z,19.82
2022-08-23T01:20:17.406Z,19.82
2022-08-23T01:22:53.183Z,19.82
2022-08-23T01:25:27.635Z,19.82
2022-08-23T01:27:56.155Z,19.73
2022-08-23T01:30:27.444Z,19.68
2022-08-23T01:32:58.543Z,19.60
2022-08-23T01:35:41.514Z,19.53
2022-08-23T01:38:11.284Z,19.48
2022-08-23T01:40:42.331Z,19.44
2022-08-23T01:43:13.243Z,19.36
2022-08-23T01:45:42.989Z,19.35
2022-08-23T01:48:11.565Z,19.28
2022-08-23T01:50:40.370Z,19.19
2022-08-23T01:53:10.678Z,19.08
2022-08-23T01:55:42.338Z,19.03
2022-08-23T01:58:11.672Z,18.98
2022-08-23T02:00:42.424Z,18.93
2022-08-23T02:03:12.889Z,18.91
2022-08-23T02:05:42.887Z,18.90
2022-08-23T02:08:29.077Z,18.85
2022-08-23T02:11:00.537Z,18.90
2022-08-23T02:13:29.840Z,18.78
2022-08-23T02:15:58.639Z,18.82
2022-08-23T02:18:28.133Z,18.83
2022-08-23T02:20:56.915Z,18.79
2022-08-23T02:23:25.981Z,18.67
2022-08-23T02:25:55.565Z,18.62
2022-08-23T02:28:26.684Z,18.69
2022-08-23T02:30:55.508Z,18.55
2022-08-23T02:33:24.337Z,18.59
2022-08-23T02:35:53.686Z,18.57
2022-08-23T02:38:22.169Z,18.60
2022-08-23T02:40:53.059Z,18.60
2022-08-23T02:43:31.516Z,18.57
2022-08-23T02:46:07.841Z,18.56
2022-08-23T02:48:36.881Z,18.55
2022-08-23T02:51:10.574Z,18.52
2022-08-23T02:53:41.104Z,18.51
2022-08-23T02:56:21.160Z,18.36
2022-08-23T02:58:54.222Z,18.26
2022-08-23T03:01:28.886Z,18.16
2022-08-23T03:03:59.318Z,18.08
2022-08-23T03:06:29.064Z,18.13
2022-08-23T03:08:58.477Z,18.15
2022-08-23T03:11:27.733Z,18.10
2022-08-23T03:14:01.599Z,18.02
2022-08-23T03:16:31.303Z,18.02
2022-08-23T03:19:02.612Z,18.11
2022-08-23T03:21:31.495Z,18.16
2022-08-23T03:24:01.141Z,18.11
2022-08-23T03:26:29.705Z,18.03
2022-08-23T03:28:58.771Z,18.03
2022-08-23T03:31:31.304Z,18.10
2022-08-23T03:34:00.708Z,18.12
2022-08-23T03:36:29.760Z,18.10
2022-08-23T03:38:58.790Z,17.99
2022-08-23T03:41:30.765Z,18.06
2022-08-23T03:43:59.424Z,18.02
2022-08-23T03:46:33.763Z,17.91
2022-08-23T03:49:04.116Z,17.89
2022-08-23T03:51:34.645Z,17.81
2022-08-23T03:54:03.828Z,17.82
2022-08-23T03:56:36.165Z,17.80
2022-08-23T03:59:07.513Z,17.86
2022-08-23T04:01:37.398Z,17.73
2022-08-23T04:04:06.938Z,17.69
2022-08-23T04:06:35.682Z,17.68
2022-08-23T04:09:04.552Z,17.61
2022-08-23T04:11:33.189Z,17.64
2022-08-23T04:14:02.692Z,17.69
2022-08-23T04:16:37.622Z,17.72
2022-08-23T04:19:08.737Z,17.72
2022-08-23T04:21:39.037Z,17.68
2022-08-23T04:24:07.738Z,17.65
2022-08-23T04:26:36.437Z,17.67
2022-08-23T04:29:05.802Z,17.62
2022-08-23T04:31:37.147Z,17.57
2022-08-23T04:34:09.433Z,17.58
2022-08-23T04:36:41.710Z,17.57
2022-08-23T04:39:17.818Z,17.56
2022-08-23T04:42:05.434Z,17.44
2022-08-23T04:44:34.080Z,17.43
2022-08-23T04:47:02.669Z,17.43
2022-08-23T04:49:33.894Z,17.47
2022-08-23T04:52:03.812Z,17.42
2022-08-23T04:54:32.420Z,17.43
2022-08-23T04:57:00.800Z,17.37
2022-08-23T04:59:29.359Z,17.35
2022-08-23T05:01:58.400Z,17.33
2022-08-23T05:04:27.405Z,17.37
2022-08-23T05:06:57.900Z,17.34
2022-08-23T05:09:27.362Z,17.34
2022-08-23T05:11:56.662Z,17.32
2022-08-23T05:14:25.398Z,17.34
2022-08-23T05:16:53.996Z,17.41
2022-08-23T05:19:22.673Z,17.32
2022-08-23T05:21:53.940Z,17.32
2022-08-23T05:24:26.717Z,17.39
2022-08-23T05:26:55.082Z,17.53
2022-08-23T05:29:23.446Z,17.44
2022-08-23T05:31:52.102Z,17.42
2022-08-23T05:34:22.776Z,17.36
2022-08-23T05:36:55.595Z,17.38
2022-08-23T05:39:32.973Z,17.45
2022-08-23T05:42:08.460Z,17.37
2022-08-23T05:44:37.411Z,17.45
2022-08-23T05:47:10.804Z,17.43
2022-08-23T05:49:40.530Z,17.41
2022-08-23T05:52:13.308Z,17.47
2022-08-23T05:54:42.271Z,17.45
2022-08-23T05:57:12.744Z,17.49
2022-08-23T05:59:44.355Z,17.54
2022-08-23T06:02:12.830Z,17.53
2022-08-23T06:04:41.580Z,17.45
2022-08-23T06:07:11.715Z,17.48
2022-08-23T06:09:40.550Z,17.51
2022-08-23T06:12:09.836Z,17.54
2022-08-23T06:14:40.276Z,17.52
2022-08-23T06:17:09.045Z,17.60
2022-08-23T06:19:37.427Z,17.69
2022-08-23T06:22:05.821Z,17.70
2022-08-23T06:24:34.495Z,17.63
2022-08-23T06:27:03.529Z,17.69
2022-08-23T06:29:32.116Z,17.69
2022-08-23T06:32:02.804Z,17.79
2022-08-23T06:34:33.753Z,17.68
2022-08-23T06:37:05.100Z,17.76
2022-08-23T06:39:37.550Z,17.81
2022-08-23T06:42:34.440Z,17.91
2022-08-23T06:44:57.900Z,17.83
2022-08-23T06:47:29.227Z,17.95
2022-08-23T06:49:58.784Z,17.96
2022-08-23T06:52:28.998Z,17.99
2022-08-23T06:54:57.951Z,18.02
2022-08-23T06:57:27.617Z,17.98
2022-08-23T06:59:56.065Z,18.05
2022-08-23T07:02:24.662Z,18.14
2022-08-23T07:04:56.178Z,18.06
2022-08-23T07:07:24.794Z,18.12
2022-08-23T07:10:11.330Z,18.22
2022-08-23T07:12:42.698Z,18.13
2022-08-23T07:15:14.013Z,18.14
2022-08-23T07:17:42.539Z,18.17
2022-08-23T07:20:13.409Z,18.16
2022-08-23T07:22:41.925Z,18.12
2022-08-23T07:25:10.742Z,18.13
2022-08-23T07:27:39.523Z,18.18
2022-08-23T07:30:09.735Z,18.23
2022-08-23T07:32:38.395Z,18.27
2022-08-23T07:35:07.949Z,18.34
2022-08-23T07:37:37.969Z,18.42
2022-08-23T07:40:08.935Z,18.28
2022-08-23T07:42:37.890Z,18.27
2022-08-23T07:45:10.038Z,18.22
2022-08-23T07:47:39.014Z,18.17
2022-08-23T07:50:10.142Z,18.11
2022-08-23T07:52:40.748Z,18.14
2022-08-23T07:55:10.301Z,18.16
2022-08-23T07:57:39.109Z,18.12
2022-08-23T08:00:09.627Z,18.06
2022-08-23T08:02:38.405Z,18.02
2022-08-23T08:05:08.828Z,18.03
2022-08-23T08:07:39.367Z,17.84
2022-08-23T08:10:09.276Z,17.93
2022-08-23T08:12:37.701Z,17.89
2022-08-23T08:15:07.336Z,17.65
2022-08-23T08:17:36.815Z,17.66
2022-08-23T08:20:06.320Z,17.83
2022-08-23T08:22:34.579Z,17.87
2022-08-23T08:25:04.934Z,17.85
2022-08-23T08:27:34.013Z,17.95
2022-08-23T08:30:04.405Z,17.85
2022-08-23T08:32:33.437Z,17.89
2022-08-23T08:35:03.415Z,17.93
2022-08-23T08:37:32.432Z,17.92
2022-08-23T08:40:03.887Z,18.12
2022-08-23T08:42:46.122Z,18.11
2022-08-23T08:45:21.909Z,18.18
2022-08-23T08:47:54.797Z,18.12
2022-08-23T08:50:30.149Z,18.31
2022-08-23T08:53:04.065Z,18.42
2022-08-23T08:55:39.525Z,18.62
2022-08-23T08:58:17.801Z,18.92
2022-08-23T09:00:50.676Z,19.02
2022-08-23T09:03:22.859Z,19.28
2022-08-23T09:06:03.293Z,19.66
2022-08-23T09:08:51.156Z,19.97
2022-08-23T09:11:35.422Z,19.98
2022-08-23T09:14:31.759Z,19.94
2022-08-23T09:17:05.674Z,19.79
2022-08-23T09:19:38.748Z,19.76
2022-08-23T09:22:13.794Z,19.83
2022-08-23T09:24:42.939Z,19.97
2022-08-23T09:27:13.450Z,19.94
2022-08-23T09:29:57.472Z,19.90
2022-08-23T09:32:34.277Z,20.00
2022-08-23T09:35:10.224Z,20.14
2022-08-23T09:37:53.268Z,19.95
2022-08-23T09:40:32.280Z,20.10
2022-08-23T09:43:14.574Z,20.01
2022-08-23T09:45:54.722Z,20.08
2022-08-23T09:48:36.619Z,20.02
2022-08-23T09:51:14.368Z,19.86
2022-08-23T09:53:49.956Z,19.97
2022-08-23T09:56:26.326Z,19.87
2022-08-23T09:58:57.139Z,19.81
2022-08-23T10:01:27.996Z,19.70
2022-08-23T10:04:12.401Z,19.65
2022-08-23T10:06:43.503Z,19.89
2022-08-23T10:09:26.014Z,19.83
2022-08-23T10:11:55.299Z,19.80
2022-08-23T10:14:30.744Z,20.25
2022-08-23T10:17:11.491Z,20.81
2022-08-23T10:19:48.605Z,20.94
2022-08-23T10:22:21.921Z,21.12
2022-08-23T10:25:01.031Z,21.08
2022-08-23T10:27:53.326Z,21.62
2022-08-23T10:30:28.579Z,21.85
2022-08-23T10:33:08.286Z,21.47
2022-08-23T10:35:45.215Z,21.31
2022-08-23T10:38:29.720Z,20.54
2022-08-23T10:41:04.963Z,20.59
2022-08-23T10:43:41.021Z,20.27
2022-08-23T10:46:12.257Z,20.27
2022-08-23T10:48:50.376Z,20.47
2022-08-23T10:51:31.928Z,20.40
2022-08-23T10:54:08.098Z,20.45
2022-08-23T10:56:44.334Z,20.23
2022-08-23T10:59:24.227Z,20.16
2022-08-23T11:02:01.623Z,20.44
2022-08-23T11:04:37.189Z,20.79
2022-08-23T11:07:18.254Z,20.81
2022-08-23T11:09:55.089Z,20.66
2022-08-23T11:12:30.264Z,20.90
2022-08-23T11:15:12.501Z,20.98
2022-08-23T11:17:58.185Z,21.44
2022-08-23T11:21:06.385Z,22.20
2022-08-23T11:23:45.320Z,22.65
2022-08-23T11:26:48.948Z,21.85
2022-08-23T11:29:33.220Z,21.60
2022-08-23T11:32:19.675Z,21.83
2022-08-23T11:35:00.215Z,22.40
2022-08-23T11:37:49.581Z,22.50
2022-08-23T11:40:39.668Z,22.86
2022-08-23T11:43:13.749Z,22.44
2022-08-23T11:45:47.511Z,21.88
2022-08-23T11:48:20.558Z,21.41
2022-08-23T11:51:11.309Z,21.39
2022-08-23T11:53:58.493Z,21.80
2022-08-23T11:56:46.317Z,22.08
2022-08-23T11:59:38.448Z,22.53
2022-08-23T12:02:37.279Z,22.39
2022-08-23T12:05:21.290Z,21.92
2022-08-23T12:07:56.041Z,21.95
2022-08-23T12:10:46.769Z,22.12
2022-08-23T12:13:31.943Z,22.13
2022-08-23T12:16:17.038Z,22.53
2022-08-23T12:18:54.774Z,22.86
2022-08-23T12:21:29.051Z,23.06
2022-08-23T12:24:02.926Z,22.75
2022-08-23T12:26:45.668Z,23.35
2022-08-23T12:29:25.672Z,23.13
2022-08-23T12:32:01.043Z,23.11
2022-08-23T12:34:35.382Z,22.35
2022-08-23T12:37:16.261Z,22.30
2022-08-23T12:39:52.652Z,22.37
2022-08-23T12:42:27.732Z,22.39
2022-08-23T12:45:07.204Z,22.52
2022-08-23T12:47:40.982Z,22.48
2022-08-23T12:50:32.469Z,22.52
2022-08-23T12:53:06.258Z,22.91
2022-08-23T12:55:38.925Z,23.36
2022-08-23T12:58:09.289Z,23.69
2022-08-23T13:00:43.754Z,23.62
2022-08-23T13:03:19.095Z,23.82
2022-08-23T13:05:52.757Z,23.44
2022-08-23T13:08:34.134Z,23.19
2022-08-23T13:11:08.458Z,22.97
2022-08-23T13:13:40.205Z,22.75
2022-08-23T13:16:29.710Z,22.39
2022-08-23T13:19:16.702Z,22.46
2022-08-23T13:21:45.980Z,22.52
2022-08-23T13:24:38.741Z,22.85
2022-08-23T13:27:23.125Z,23.39
2022-08-23T13:29:55.187Z,23.57
2022-08-23T13:32:43.644Z,23.52
2022-08-23T13:35:40.515Z,23.61
2022-08-23T13:38:21.720Z,23.97
2022-08-23T13:41:05.648Z,24.28
2022-08-23T13:43:40.969Z,23.56
2022-08-23T13:46:21.732Z,23.56
2022-08-23T13:48:58.655Z,23.55
2022-08-23T13:51:31.967Z,23.95
2022-08-23T13:54:02.976Z,23.63
2022-08-23T13:59:06.791Z,23.68
2022-08-23T14:01:36.148Z,23.64
2022-08-23T14:04:05.143Z,23.54
2022-08-23T14:06:33.580Z,24.22
2022-08-23T14:09:02.045Z,24.45
2022-08-23T14:11:30.788Z,23.77
2022-08-23T14:13:59.188Z,23.41
2022-08-23T14:16:33.164Z,24.13
2022-08-23T14:19:55.124Z,24.05
2022-08-23T14:21:53.793Z,23.74
2022-08-23T14:24:23.224Z,23.82
2022-08-23T14:26:52.671Z,24.31
2022-08-23T14:29:22.872Z,24.39
2022-08-23T14:31:53.620Z,24.46
2022-08-23T14:34:22.775Z,24.41
2022-08-23T14:39:42.404Z,24.61
2022-08-23T14:42:13.606Z,24.35
2022-08-23T14:44:43.110Z,23.83
2022-08-23T14:47:13.045Z,23.54
2022-08-23T14:49:42.086Z,23.57
2022-08-23T14:52:12.238Z,23.64
2022-08-23T14:54:41.468Z,23.30
2022-08-23T14:57:10.545Z,23.32
2022-08-23T14:59:39.003Z,23.63
2022-08-23T15:02:12.257Z,23.36
2022-08-23T15:04:42.512Z,23.21
2022-08-23T15:07:18.263Z,23.09
2022-08-23T15:09:47.504Z,23.24
2022-08-23T15:15:06.682Z,23.80
2022-08-23T15:17:38.903Z,23.56
2022-08-23T15:20:09.643Z,23.32
2022-08-23T15:22:44.277Z,23.51
2022-08-23T15:25:13.500Z,23.31
2022-08-23T15:27:42.753Z,23.11
2022-08-23T15:30:13.938Z,23.07
2022-08-23T15:32:52.137Z,23.02
2022-08-23T15:35:25.689Z,23.43
2022-08-23T15:37:56.385Z,24.05
2022-08-23T15:40:26.516Z,25.18
2022-08-23T15:42:55.146Z,25.74
2022-08-23T15:45:23.765Z,25.97
2022-08-23T15:47:54.504Z,27.07
2022-08-23T15:50:27.686Z,26.65
2022-08-23T15:52:56.779Z,28.47
2022-08-23T15:55:29.591Z,28.37
2022-08-23T15:57:58.879Z,29.80
2022-08-23T16:00:28.499Z,29.52
2022-08-23T16:03:20.656Z,30.19
2022-08-23T16:05:49.938Z,29.52
2022-08-23T16:08:23.098Z,29.96
2022-08-23T16:10:52.468Z,30.27
2022-08-23T16:13:21.437Z,29.98
2022-08-23T16:15:50.228Z,31.17
2022-08-23T16:18:19.151Z,31.42
2022-08-23T16:20:49.005Z,28.38
2022-08-23T16:23:23.323Z,27.97
2022-08-23T16:25:54.417Z,28.32
2022-08-23T16:28:24.271Z,26.89
2022-08-23T16:30:52.911Z,25.54
2022-08-23T16:33:21.509Z,25.02
2022-08-23T16:35:51.728Z,24.78
2022-08-23T16:38:21.243Z,28.39
2022-08-23T16:40:50.162Z,28.94
2022-08-23T16:43:18.829Z,26.45
2022-08-23T16:45:47.474Z,25.47
2022-08-23T16:48:16.283Z,28.99
2022-08-23T16:50:45.040Z,30.09
2022-08-23T16:53:15.757Z,31.04
2022-08-23T16:55:45.709Z,31.44
2022-08-23T16:58:14.286Z,28.40
2022-08-23T17:00:42.762Z,25.96
2022-08-23T17:03:11.519Z,25.72
2022-08-23T17:05:39.901Z,28.75
2022-08-23T17:08:08.673Z,30.56
2022-08-23T17:10:39.204Z,29.66
2022-08-23T17:13:11.053Z,26.49
2022-08-23T17:15:40.177Z,25.26
2022-08-23T17:18:09.409Z,24.64
2022-08-23T17:20:41.319Z,24.50
2022-08-23T17:23:12.406Z,26.99
2022-08-23T17:25:47.750Z,28.00
2022-08-23T17:28:17.826Z,26.70
2022-08-23T17:30:46.239Z,25.32
2022-08-23T17:33:15.370Z,24.54
2022-08-23T17:35:45.935Z,23.90
2022-08-23T17:38:15.717Z,24.41
2022-08-23T17:40:45.963Z,26.06
2022-08-23T17:43:14.454Z,26.24
2022-08-23T17:45:52.430Z,24.87
2022-08-23T17:48:23.024Z,27.13
2022-08-23T17:50:51.455Z,29.52
2022-08-23T17:53:20.458Z,29.31
2022-08-23T17:55:50.504Z,29.98
2022-08-23T17:58:20.669Z,27.82
2022-08-23T18:00:49.218Z,26.18
2022-08-23T18:03:17.718Z,25.04
2022-08-23T18:05:46.538Z,25.40
2022-08-23T18:08:16.840Z,25.84
2022-08-23T18:10:45.347Z,24.78
2022-08-23T18:13:15.412Z,24.33
2022-08-23T18:15:43.916Z,23.66
2022-08-23T18:18:12.263Z,23.20
2022-08-23T18:20:40.852Z,23.12
2022-08-23T18:23:09.451Z,22.84
2022-08-23T18:25:38.321Z,22.69
2022-08-23T18:28:09.701Z,22.50
2022-08-23T18:30:47.052Z,22.51
2022-08-23T18:33:16.795Z,22.54
2022-08-23T18:35:48.412Z,22.57
2022-08-23T18:38:18.021Z,22.46
2022-08-23T18:40:48.975Z,22.42
2022-08-23T18:43:19.826Z,22.35
2022-08-23T18:45:53.118Z,22.17
2022-08-23T18:48:23.874Z,22.08
2022-08-23T18:50:53.325Z,22.06
2022-08-23T18:53:22.722Z,22.10
2022-08-23T18:55:52.643Z,21.92
2022-08-23T18:58:22.902Z,22.00
2022-08-23T19:00:54.500Z,22.10
2022-08-23T19:03:23.388Z,22.05
2022-08-23T19:05:52.336Z,22.00
2022-08-23T19:08:20.881Z,22.01
2022-08-23T19:10:49.756Z,22.04
2022-08-23T19:13:18.389Z,22.04
2022-08-23T19:15:47.178Z,21.95
2022-08-23T19:18:17.337Z,21.75
2022-08-23T19:20:46.265Z,21.70
2022-08-23T19:23:15.942Z,21.80
2022-08-23T19:25:45.577Z,21.71
2022-08-23T19:28:14.914Z,21.60
2022-08-23T19:30:44.967Z,21.69
2022-08-23T19:33:15.166Z,21.56
2022-08-23T19:35:46.179Z,21.62
2022-08-23T19:38:14.814Z,21.63
2022-08-23T19:41:05.479Z,21.48
2022-08-23T19:43:35.669Z,21.40
2022-08-23T19:46:08.497Z,21.29
2022-08-23T19:48:37.929Z,21.18
2022-08-23T19:51:10.557Z,21.18
2022-08-23T19:53:40.339Z,21.18
2022-08-23T19:56:09.178Z,21.15
2022-08-23T19:58:40.038Z,21.13
2022-08-23T20:01:08.608Z,21.21
2022-08-23T20:03:37.424Z,21.10
2022-08-23T20:06:08.360Z,21.08
2022-08-23T20:08:38.153Z,21.03
2022-08-23T20:11:08.326Z,21.00
2022-08-23T20:13:36.928Z,21.02
2022-08-23T20:16:05.643Z,21.08
2022-08-23T20:18:34.336Z,21.18
2022-08-23T20:21:02.988Z,21.11
2022-08-23T20:23:50.349Z,21.16
2022-08-23T20:26:18.643Z,21.20
2022-08-23T20:28:50.452Z,21.22
2022-08-23T20:31:32.301Z,21.24
2022-08-23T20:34:01.504Z,21.20
2022-08-23T20:36:30.448Z,21.17
2022-08-23T20:39:01.808Z,21.16
2022-08-23T20:41:32.734Z,21.03
2022-08-23T20:44:05.744Z,20.99
2022-08-23T20:46:37.193Z,20.96
2022-08-23T20:49:07.012Z,20.83
2022-08-23T20:51:41.719Z,20.76
2022-08-23T20:54:14.045Z,20.68
2022-08-23T20:56:42.860Z,20.71
2022-08-23T20:59:13.054Z,20.59
2022-08-23T21:01:42.775Z,20.65
2022-08-23T21:04:12.891Z,20.50
2022-08-23T21:06:45.110Z,20.35
2022-08-23T21:09:20.761Z,20.36
2022-08-23T21:11:54.064Z,20.31
2022-08-23T21:14:23.266Z,20.27
2022-08-23T21:16:57.796Z,20.23
2022-08-23T21:19:30.759Z,20.16
2022-08-23T21:22:00.135Z,20.13
2022-08-23T21:24:30.399Z,20.07
2022-08-23T21:27:00.520Z,20.07
2022-08-23T21:29:30.974Z,20.04
2022-08-23T21:31:59.304Z,20.04
2022-08-23T21:34:28.120Z,19.88
2022-08-23T21:37:01.388Z,20.01
2022-08-23T21:39:31.197Z,20.06
2022-08-23T21:42:02.956Z,20.04
2022-08-23T21:44:44.008Z,19.94
2022-08-23T21:47:15.611Z,19.95
2022-08-23T21:49:45.810Z,20.10
2022-08-23T21:52:15.701Z,20.02
2022-08-23T21:54:53.545Z,20.10
2022-08-23T21:57:26.487Z,20.05
2022-08-23T21:59:55.368Z,20.01
2022-08-23T22:02:25.138Z,20.03
2022-08-23T22:04:54.024Z,19.95
2022-08-23T22:07:24.409Z,20.10
2022-08-23T22:09:54.621Z,20.03
2022-08-23T22:12:25.566Z,19.90
2022-08-23T22:14:54.262Z,19.94
2022-08-23T22:17:22.878Z,19.96
2022-08-23T22:19:51.931Z,19.82
2022-08-23T22:22:20.919Z,19.83
2022-08-23T22:24:54.649Z,19.90
2022-08-23T22:27:26.643Z,19.80
2022-08-23T22:30:06.690Z,19.76
2022-08-23T22:32:35.978Z,19.67
2022-08-23T22:35:06.890Z,19.49
2022-08-23T22:38:03.567Z,19.46
2022-08-23T22:40:35.745Z,19.38
2022-08-23T22:43:05.363Z,19.24
2022-08-23T22:45:36.464Z,19.21
2022-08-23T22:48:05.352Z,19.25
2022-08-23T22:50:37.013Z,19.34
2022-08-23T22:53:06.093Z,19.43
2022-08-23T22:55:36.633Z,19.37
2022-08-23T22:58:05.028Z,19.37
2022-08-23T23:00:33.984Z,19.21
2022-08-23T23:03:03.722Z,19.16
2022-08-23T23:05:34.623Z,19.11
2022-08-23T23:08:22.246Z,19.07
2022-08-23T23:10:52.672Z,19.11
2022-08-23T23:13:23.320Z,19.01
2022-08-23T23:15:53.127Z,19.03
2022-08-23T23:18:23.348Z,19.02
2022-08-23T23:20:51.887Z,18.85
2022-08-23T23:23:32.444Z,18.68
2022-08-23T23:26:08.343Z,18.53
2022-08-23T23:28:37.931Z,18.45
2022-08-23T23:31:09.654Z,18.56
2022-08-23T23:33:45.703Z,18.52
2022-08-23T23:36:16.578Z,18.54
2022-08-23T23:38:46.184Z,18.63
2022-08-23T23:41:22.977Z,18.54
2022-08-23T23:43:54.116Z,18.33
2022-08-23T23:46:35.451Z,18.11
2022-08-23T23:49:04.078Z,17.85
2022-08-23T23:51:32.825Z,17.59
2022-08-23T23:54:01.796Z,17.21
2022-08-23T23:56:32.993Z,17.15
2022-08-23T23:59:07.999Z,17.23
